首页
METAR-TAF:

METAR-TAF

机场 :

Door County Cherryland Airport

Sturgeon Bay, 威斯康辛州, 美国

纬度: 44-51N, 经度: 087-25W, 海拔: 221米

当前天气观测

该预报发布于38分钟前的21:56 UTC
风速9节,风向南转南东
温度 22°C
湿度 60%
气压 1018 hPa
能見度: 16.1公里
天空无云

METAR: KSUE 052156Z AUTO 16009KT 10SM CLR 22/14 A3007 RMK AO2 SLP182 T02220144

时间: 17:34 (22:34 UTC)


TAF: 丢失

超过4000个机场的气象观测和天气预报(METAR&TAF报告)。

可查询的气象台以黄色和红色小点在地图上表示。

将鼠标移到小点上方,可查看气象台名称。

然后点击查看天气观测和预报。

如需切换地图:点击带黑十字的绿色按钮放大地图;点击带横线的绿色按钮缩小地图;或者点击绿色箭头查看邻近地区的地图。


METAR-TAF: